sensor_id;sensor_type;location;lat;lon;timestamp;P1;durP1;ratioP1;P2;durP2;ratioP2
52530;SDS011;38441;52.894;6.040;2022-09-13T00:00:49;20.33;;;15.73;;
52530;SDS011;38441;52.894;6.040;2022-09-13T00:03:16;18.38;;;15.07;;
52530;SDS011;38441;52.894;6.040;2022-09-13T00:05:42;19.65;;;13.95;;
52530;SDS011;38441;52.894;6.040;2022-09-13T00:08:08;20.33;;;14.68;;
52530;SDS011;38441;52.894;6.040;2022-09-13T00:10:34;19.50;;;14.07;;
52530;SDS011;38441;52.894;6.040;2022-09-13T00:13:01;17.23;;;13.65;;
52530;SDS011;38441;52.894;6.040;2022-09-13T00:15:28;18.75;;;14.82;;
52530;SDS011;38441;52.894;6.040;2022-09-13T00:17:54;16.55;;;13.55;;
52530;SDS011;38441;52.894;6.040;2022-09-13T00:20:20;16.88;;;13.30;;
52530;SDS011;38441;52.894;6.040;2022-09-13T00:22:45;17.50;;;14.25;;
52530;SDS011;38441;52.894;6.040;2022-09-13T00:25:11;15.35;;;12.85;;
52530;SDS011;38441;52.894;6.040;2022-09-13T00:27:36;17.85;;;13.07;;
52530;SDS011;38441;52.894;6.040;2022-09-13T00:30:03;21.40;;;14.80;;
52530;SDS011;38441;52.894;6.040;2022-09-13T00:32:29;17.77;;;13.70;;
52530;SDS011;38441;52.894;6.040;2022-09-13T00:34:55;17.17;;;13.57;;
52530;SDS011;38441;52.894;6.040;2022-09-13T00:37:22;15.02;;;12.68;;
52530;SDS011;38441;52.894;6.040;2022-09-13T00:39:47;17.38;;;14.02;;
52530;SDS011;38441;52.894;6.040;2022-09-13T00:42:13;19.13;;;13.85;;
52530;SDS011;38441;52.894;6.040;2022-09-13T00:44:48;19.10;;;13.30;;
52530;SDS011;38441;52.894;6.040;2022-09-13T00:47:23;17.90;;;13.50;;
52530;SDS011;38441;52.894;6.040;2022-09-13T00:52:43;17.00;;;12.90;;
52530;SDS011;38441;52.894;6.040;2022-09-13T00:55:15;15.15;;;12.00;;
52530;SDS011;38441;52.894;6.040;2022-09-13T00:57:45;14.13;;;11.50;;
52530;SDS011;38441;52.894;6.040;2022-09-13T01:00:12;17.02;;;13.00;;
52530;SDS011;38441;52.894;6.040;2022-09-13T01:02:42;18.55;;;14.07;;
52530;SDS011;38441;52.894;6.040;2022-09-13T01:05:21;21.73;;;14.50;;
52530;SDS011;38441;52.894;6.040;2022-09-13T01:07:52;19.45;;;13.50;;
52530;SDS011;38441;52.894;6.040;2022-09-13T01:10:19;15.55;;;12.63;;
52530;SDS011;38441;52.894;6.040;2022-09-13T01:15:19;14.57;;;12.55;;
52530;SDS011;38441;52.894;6.040;2022-09-13T01:17:45;17.35;;;13.50;;
52530;SDS011;38441;52.894;6.040;2022-09-13T01:20:12;16.85;;;13.75;;
52530;SDS011;38441;52.894;6.040;2022-09-13T01:22:44;18.75;;;14.27;;
52530;SDS011;38441;52.894;6.040;2022-09-13T01:28:26;17.23;;;13.57;;
52530;SDS011;38441;52.894;6.040;2022-09-13T01:31:16;18.63;;;13.75;;
52530;SDS011;38441;52.894;6.040;2022-09-13T01:34:09;17.75;;;13.10;;
52530;SDS011;38441;52.894;6.040;2022-09-13T01:36:43;16.35;;;12.27;;
52530;SDS011;38441;52.894;6.040;2022-09-13T01:42:25;12.80;;;10.95;;
52530;SDS011;38441;52.894;6.040;2022-09-13T01:48:40;14.10;;;11.57;;
52530;SDS011;38441;52.894;6.040;2022-09-13T01:56:50;15.45;;;12.93;;
52530;SDS011;38441;52.894;6.040;2022-09-13T02:05:13;15.60;;;11.40;;
52530;SDS011;38441;52.894;6.040;2022-09-13T02:07:48;13.40;;;11.93;;
52530;SDS011;38441;52.894;6.040;2022-09-13T02:10:21;16.30;;;11.15;;
52530;SDS011;38441;52.894;6.040;2022-09-13T02:12:52;13.43;;;10.73;;
52530;SDS011;38441;52.894;6.040;2022-09-13T02:15:24;14.02;;;10.45;;
52530;SDS011;38441;52.894;6.040;2022-09-13T02:17:57;13.82;;;9.02;;
52530;SDS011;38441;52.894;6.040;2022-09-13T02:20:46;10.43;;;8.68;;
52530;SDS011;38441;52.894;6.040;2022-09-13T02:23:31;10.63;;;8.27;;
52530;SDS011;38441;52.894;6.040;2022-09-13T02:26:01;11.85;;;7.95;;
52530;SDS011;38441;52.894;6.040;2022-09-13T02:28:32;10.23;;;8.95;;
52530;SDS011;38441;52.894;6.040;2022-09-13T02:31:01;10.32;;;7.53;;
52530;SDS011;38441;52.894;6.040;2022-09-13T02:33:32;13.25;;;7.90;;
52530;SDS011;38441;52.894;6.040;2022-09-13T02:36:05;12.30;;;8.07;;
52530;SDS011;38441;52.894;6.040;2022-09-13T02:38:36;10.23;;;7.95;;
52530;SDS011;38441;52.894;6.040;2022-09-13T02:43:41;9.65;;;7.50;;
52530;SDS011;38441;52.894;6.040;2022-09-13T02:46:17;9.60;;;6.43;;
52530;SDS011;38441;52.894;6.040;2022-09-13T02:49:04;10.30;;;6.78;;
52530;SDS011;38441;52.894;6.040;2022-09-13T02:52:06;8.32;;;6.10;;
52530;SDS011;38441;52.894;6.040;2022-09-13T02:58:01;10.57;;;5.75;;
52530;SDS011;38441;52.894;6.040;2022-09-13T03:00:33;8.63;;;5.80;;
52530;SDS011;38441;52.894;6.040;2022-09-13T03:03:02;8.15;;;5.32;;
52530;SDS011;38441;52.894;6.040;2022-09-13T03:05:30;7.38;;;5.40;;
52530;SDS011;38441;52.894;6.040;2022-09-13T03:07:56;6.93;;;4.90;;
52530;SDS011;38441;52.894;6.040;2022-09-13T03:10:23;7.28;;;4.45;;
52530;SDS011;38441;52.894;6.040;2022-09-13T03:12:59;6.80;;;4.07;;
52530;SDS011;38441;52.894;6.040;2022-09-13T03:15:57;7.38;;;4.50;;
52530;SDS011;38441;52.894;6.040;2022-09-13T03:24:17;8.40;;;4.93;;
52530;SDS011;38441;52.894;6.040;2022-09-13T03:27:02;7.22;;;5.10;;
52530;SDS011;38441;52.894;6.040;2022-09-13T03:33:28;6.22;;;4.70;;
52530;SDS011;38441;52.894;6.040;2022-09-13T03:35:35;6.57;;;4.93;;
52530;SDS011;38441;52.894;6.040;2022-09-13T03:38:07;7.00;;;4.68;;
52530;SDS011;38441;52.894;6.040;2022-09-13T03:45:51;6.38;;;4.18;;
52530;SDS011;38441;52.894;6.040;2022-09-13T03:48:20;6.60;;;4.60;;
52530;SDS011;38441;52.894;6.040;2022-09-13T03:50:47;5.63;;;4.28;;
52530;SDS011;38441;52.894;6.040;2022-09-13T03:53:14;5.93;;;3.97;;
52530;SDS011;38441;52.894;6.040;2022-09-13T03:55:47;5.28;;;3.58;;
52530;SDS011;38441;52.894;6.040;2022-09-13T03:58:14;5.63;;;3.92;;
52530;SDS011;38441;52.894;6.040;2022-09-13T04:00:44;5.57;;;3.60;;
52530;SDS011;38441;52.894;6.040;2022-09-13T04:03:10;5.80;;;3.08;;
52530;SDS011;38441;52.894;6.040;2022-09-13T04:05:36;6.40;;;3.25;;
52530;SDS011;38441;52.894;6.040;2022-09-13T04:08:03;6.18;;;2.45;;
52530;SDS011;38441;52.894;6.040;2022-09-13T04:10:31;4.50;;;2.30;;
52530;SDS011;38441;52.894;6.040;2022-09-13T04:12:58;4.65;;;1.70;;
52530;SDS011;38441;52.894;6.040;2022-09-13T04:15:25;3.03;;;1.63;;
52530;SDS011;38441;52.894;6.040;2022-09-13T04:17:51;4.68;;;1.90;;
52530;SDS011;38441;52.894;6.040;2022-09-13T04:20:17;4.38;;;1.67;;
52530;SDS011;38441;52.894;6.040;2022-09-13T04:22:43;4.28;;;1.40;;
52530;SDS011;38441;52.894;6.040;2022-09-13T04:25:14;4.43;;;1.85;;
52530;SDS011;38441;52.894;6.040;2022-09-13T04:27:40;4.22;;;1.30;;
52530;SDS011;38441;52.894;6.040;2022-09-13T04:30:05;4.20;;;1.35;;
52530;SDS011;38441;52.894;6.040;2022-09-13T04:32:31;2.53;;;1.10;;
52530;SDS011;38441;52.894;6.040;2022-09-13T04:34:57;2.85;;;1.20;;
52530;SDS011;38441;52.894;6.040;2022-09-13T04:37:23;3.13;;;1.10;;
52530;SDS011;38441;52.894;6.040;2022-09-13T04:39:48;2.05;;;1.00;;
52530;SDS011;38441;52.894;6.040;2022-09-13T04:42:14;4.03;;;1.00;;
52530;SDS011;38441;52.894;6.040;2022-09-13T04:44:40;3.38;;;0.95;;
52530;SDS011;38441;52.894;6.040;2022-09-13T04:47:05;2.38;;;1.00;;
52530;SDS011;38441;52.894;6.040;2022-09-13T04:49:32;1.75;;;0.75;;
52530;SDS011;38441;52.894;6.040;2022-09-13T04:51:58;2.70;;;0.77;;
52530;SDS011;38441;52.894;6.040;2022-09-13T04:54:23;4.50;;;0.88;;
52530;SDS011;38441;52.894;6.040;2022-09-13T04:56:49;2.20;;;0.90;;
52530;SDS011;38441;52.894;6.040;2022-09-13T04:59:14;3.30;;;0.68;;
52530;SDS011;38441;52.894;6.040;2022-09-13T05:01:40;3.10;;;0.82;;
52530;SDS011;38441;52.894;6.040;2022-09-13T05:04:06;2.78;;;0.90;;
52530;SDS011;38441;52.894;6.040;2022-09-13T05:06:33;4.93;;;0.95;;
52530;SDS011;38441;52.894;6.040;2022-09-13T05:08:59;2.33;;;0.68;;
52530;SDS011;38441;52.894;6.040;2022-09-13T05:11:26;2.28;;;0.80;;
52530;SDS011;38441;52.894;6.040;2022-09-13T05:13:53;4.95;;;0.90;;
52530;SDS011;38441;52.894;6.040;2022-09-13T05:16:23;2.35;;;0.88;;
52530;SDS011;38441;52.894;6.040;2022-09-13T05:18:50;4.28;;;0.95;;
52530;SDS011;38441;52.894;6.040;2022-09-13T05:21:17;5.95;;;1.20;;
52530;SDS011;38441;52.894;6.040;2022-09-13T05:23:43;4.53;;;1.15;;
52530;SDS011;38441;52.894;6.040;2022-09-13T05:26:09;3.55;;;1.00;;
52530;SDS011;38441;52.894;6.040;2022-09-13T05:28:35;3.90;;;1.27;;
52530;SDS011;38441;52.894;6.040;2022-09-13T05:31:02;3.22;;;1.60;;
52530;SDS011;38441;52.894;6.040;2022-09-13T05:33:31;4.75;;;1.73;;
52530;SDS011;38441;52.894;6.040;2022-09-13T05:35:59;4.13;;;1.80;;
52530;SDS011;38441;52.894;6.040;2022-09-13T05:38:24;4.10;;;1.52;;
52530;SDS011;38441;52.894;6.040;2022-09-13T05:40:54;3.67;;;1.48;;
52530;SDS011;38441;52.894;6.040;2022-09-13T05:43:21;3.78;;;1.30;;
52530;SDS011;38441;52.894;6.040;2022-09-13T05:45:48;3.88;;;1.30;;
52530;SDS011;38441;52.894;6.040;2022-09-13T05:48:13;3.30;;;1.48;;
52530;SDS011;38441;52.894;6.040;2022-09-13T05:50:39;5.20;;;1.40;;
52530;SDS011;38441;52.894;6.040;2022-09-13T05:53:05;4.00;;;1.20;;
52530;SDS011;38441;52.894;6.040;2022-09-13T05:55:31;2.35;;;1.15;;
52530;SDS011;38441;52.894;6.040;2022-09-13T05:57:58;3.40;;;1.40;;
52530;SDS011;38441;52.894;6.040;2022-09-13T06:00:25;4.88;;;1.70;;
52530;SDS011;38441;52.894;6.040;2022-09-13T06:02:50;2.28;;;1.30;;
52530;SDS011;38441;52.894;6.040;2022-09-13T06:05:16;2.92;;;1.33;;
52530;SDS011;38441;52.894;6.040;2022-09-13T06:07:42;4.25;;;1.33;;
52530;SDS011;38441;52.894;6.040;2022-09-13T06:10:08;4.55;;;1.40;;
52530;SDS011;38441;52.894;6.040;2022-09-13T06:12:35;6.70;;;1.55;;
52530;SDS011;38441;52.894;6.040;2022-09-13T06:15:02;3.90;;;1.30;;
52530;SDS011;38441;52.894;6.040;2022-09-13T06:17:27;3.33;;;1.25;;
52530;SDS011;38441;52.894;6.040;2022-09-13T06:19:53;1.55;;;1.10;;
52530;SDS011;38441;52.894;6.040;2022-09-13T06:22:20;3.53;;;1.40;;
52530;SDS011;38441;52.894;6.040;2022-09-13T06:24:46;7.47;;;1.80;;
52530;SDS011;38441;52.894;6.040;2022-09-13T06:27:12;4.88;;;1.00;;
52530;SDS011;38441;52.894;6.040;2022-09-13T06:29:37;3.45;;;1.42;;
52530;SDS011;38441;52.894;6.040;2022-09-13T06:32:03;4.95;;;1.38;;
52530;SDS011;38441;52.894;6.040;2022-09-13T06:34:29;7.90;;;1.85;;
52530;SDS011;38441;52.894;6.040;2022-09-13T06:36:54;7.10;;;1.48;;
52530;SDS011;38441;52.894;6.040;2022-09-13T06:39:20;4.15;;;1.27;;
52530;SDS011;38441;52.894;6.040;2022-09-13T06:41:46;4.78;;;1.05;;
52530;SDS011;38441;52.894;6.040;2022-09-13T06:44:11;3.53;;;1.15;;
52530;SDS011;38441;52.894;6.040;2022-09-13T06:46:37;4.80;;;1.30;;
52530;SDS011;38441;52.894;6.040;2022-09-13T06:49:03;2.80;;;0.80;;
52530;SDS011;38441;52.894;6.040;2022-09-13T06:51:31;5.20;;;0.82;;
52530;SDS011;38441;52.894;6.040;2022-09-13T06:53:57;3.70;;;0.93;;
52530;SDS011;38441;52.894;6.040;2022-09-13T06:56:28;4.82;;;1.20;;
52530;SDS011;38441;52.894;6.040;2022-09-13T06:59:06;6.47;;;1.00;;
52530;SDS011;38441;52.894;6.040;2022-09-13T07:01:35;5.95;;;1.25;;
52530;SDS011;38441;52.894;6.040;2022-09-13T07:04:04;2.70;;;0.85;;
52530;SDS011;38441;52.894;6.040;2022-09-13T07:06:32;4.65;;;0.95;;
52530;SDS011;38441;52.894;6.040;2022-09-13T07:09:01;4.32;;;1.30;;
52530;SDS011;38441;52.894;6.040;2022-09-13T07:11:29;3.67;;;0.90;;
52530;SDS011;38441;52.894;6.040;2022-09-13T07:13:57;4.75;;;1.10;;
52530;SDS011;38441;52.894;6.040;2022-09-13T07:16:30;5.28;;;0.88;;
52530;SDS011;38441;52.894;6.040;2022-09-13T07:18:58;4.72;;;0.90;;
52530;SDS011;38441;52.894;6.040;2022-09-13T07:21:25;3.92;;;1.25;;
52530;SDS011;38441;52.894;6.040;2022-09-13T07:23:52;3.83;;;0.90;;
52530;SDS011;38441;52.894;6.040;2022-09-13T07:26:19;5.43;;;1.02;;
52530;SDS011;38441;52.894;6.040;2022-09-13T07:28:46;2.55;;;0.90;;
52530;SDS011;38441;52.894;6.040;2022-09-13T07:31:15;2.60;;;0.70;;
52530;SDS011;38441;52.894;6.040;2022-09-13T07:33:43;4.85;;;0.82;;
52530;SDS011;38441;52.894;6.040;2022-09-13T07:36:09;7.97;;;1.17;;
52530;SDS011;38441;52.894;6.040;2022-09-13T07:38:36;4.35;;;0.75;;
52530;SDS011;38441;52.894;6.040;2022-09-13T07:41:09;3.88;;;1.00;;
52530;SDS011;38441;52.894;6.040;2022-09-13T07:43:36;4.93;;;1.52;;
52530;SDS011;38441;52.894;6.040;2022-09-13T07:46:10;3.88;;;0.93;;
52530;SDS011;38441;52.894;6.040;2022-09-13T07:48:38;6.13;;;0.80;;
52530;SDS011;38441;52.894;6.040;2022-09-13T07:51:08;3.85;;;0.82;;
52530;SDS011;38441;52.894;6.040;2022-09-13T07:53:37;5.57;;;0.70;;
52530;SDS011;38441;52.894;6.040;2022-09-13T07:56:08;3.20;;;0.70;;
52530;SDS011;38441;52.894;6.040;2022-09-13T07:58:38;4.88;;;0.50;;
52530;SDS011;38441;52.894;6.040;2022-09-13T08:01:13;6.25;;;1.00;;
52530;SDS011;38441;52.894;6.040;2022-09-13T08:03:42;4.65;;;0.70;;
52530;SDS011;38441;52.894;6.040;2022-09-13T08:06:08;6.47;;;1.45;;
52530;SDS011;38441;52.894;6.040;2022-09-13T08:08:36;4.57;;;0.90;;
52530;SDS011;38441;52.894;6.040;2022-09-13T08:11:03;4.07;;;0.60;;
52530;SDS011;38441;52.894;6.040;2022-09-13T08:13:30;3.60;;;0.60;;
52530;SDS011;38441;52.894;6.040;2022-09-13T08:16:05;4.03;;;0.43;;
52530;SDS011;38441;52.894;6.040;2022-09-13T08:18:31;2.28;;;0.43;;
52530;SDS011;38441;52.894;6.040;2022-09-13T08:20:57;5.25;;;0.65;;
52530;SDS011;38441;52.894;6.040;2022-09-13T08:23:24;5.07;;;0.47;;
52530;SDS011;38441;52.894;6.040;2022-09-13T08:25:50;1.77;;;0.40;;
52530;SDS011;38441;52.894;6.040;2022-09-13T08:28:16;3.65;;;0.80;;
52530;SDS011;38441;52.894;6.040;2022-09-13T08:30:45;3.92;;;0.55;;
52530;SDS011;38441;52.894;6.040;2022-09-13T08:33:13;3.45;;;0.30;;
52530;SDS011;38441;52.894;6.040;2022-09-13T08:35:39;2.75;;;0.40;;
52530;SDS011;38441;52.894;6.040;2022-09-13T08:38:05;3.42;;;0.77;;
52530;SDS011;38441;52.894;6.040;2022-09-13T08:40:31;2.58;;;0.20;;
52530;SDS011;38441;52.894;6.040;2022-09-13T08:43:10;5.45;;;0.57;;
52530;SDS011;38441;52.894;6.040;2022-09-13T08:46:02;1.02;;;0.35;;
52530;SDS011;38441;52.894;6.040;2022-09-13T08:48:34;2.95;;;0.50;;
52530;SDS011;38441;52.894;6.040;2022-09-13T08:51:08;2.42;;;0.40;;
52530;SDS011;38441;52.894;6.040;2022-09-13T08:53:47;2.13;;;0.55;;
52530;SDS011;38441;52.894;6.040;2022-09-13T08:56:27;3.30;;;0.68;;
52530;SDS011;38441;52.894;6.040;2022-09-13T08:59:17;3.30;;;0.57;;
52530;SDS011;38441;52.894;6.040;2022-09-13T09:07:26;3.13;;;0.50;;
52530;SDS011;38441;52.894;6.040;2022-09-13T09:09:59;4.78;;;0.40;;
52530;SDS011;38441;52.894;6.040;2022-09-13T09:12:42;1.83;;;0.40;;
52530;SDS011;38441;52.894;6.040;2022-09-13T09:20:35;3.45;;;0.55;;
52530;SDS011;38441;52.894;6.040;2022-09-13T09:23:07;3.03;;;0.40;;
52530;SDS011;38441;52.894;6.040;2022-09-13T09:25:42;3.88;;;0.60;;
52530;SDS011;38441;52.894;6.040;2022-09-13T09:28:10;2.65;;;0.38;;
52530;SDS011;38441;52.894;6.040;2022-09-13T09:30:40;4.05;;;0.40;;
52530;SDS011;38441;52.894;6.040;2022-09-13T09:33:35;2.33;;;0.40;;
52530;SDS011;38441;52.894;6.040;2022-09-13T09:38:36;1.80;;;0.25;;
52530;SDS011;38441;52.894;6.040;2022-09-13T09:41:08;1.33;;;0.20;;
52530;SDS011;38441;52.894;6.040;2022-09-13T09:46:37;1.05;;;0.25;;
52530;SDS011;38441;52.894;6.040;2022-09-13T09:52:09;4.03;;;0.40;;
52530;SDS011;38441;52.894;6.040;2022-09-13T09:54:36;3.42;;;0.40;;
52530;SDS011;38441;52.894;6.040;2022-09-13T09:57:03;2.05;;;0.40;;
52530;SDS011;38441;52.894;6.040;2022-09-13T09:59:32;1.88;;;0.20;;
52530;SDS011;38441;52.894;6.040;2022-09-13T10:01:59;2.25;;;0.25;;
52530;SDS011;38441;52.894;6.040;2022-09-13T10:04:28;4.78;;;0.60;;
52530;SDS011;38441;52.894;6.040;2022-09-13T10:12:55;2.97;;;0.40;;
52530;SDS011;38441;52.894;6.040;2022-09-13T10:15:25;1.63;;;0.30;;
52530;SDS011;38441;52.894;6.040;2022-09-13T10:18:00;2.53;;;0.30;;
52530;SDS011;38441;52.894;6.040;2022-09-13T10:20:30;2.20;;;0.45;;
52530;SDS011;38441;52.894;6.040;2022-09-13T10:23:10;2.03;;;0.40;;
52530;SDS011;38441;52.894;6.040;2022-09-13T10:25:40;3.35;;;0.50;;
52530;SDS011;38441;52.894;6.040;2022-09-13T10:28:13;3.38;;;0.50;;
52530;SDS011;38441;52.894;6.040;2022-09-13T10:30:46;3.47;;;0.32;;
52530;SDS011;38441;52.894;6.040;2022-09-13T10:36:03;2.88;;;0.30;;
52530;SDS011;38441;52.894;6.040;2022-09-13T10:38:50;3.38;;;0.50;;
52530;SDS011;38441;52.894;6.040;2022-09-13T10:41:29;4.18;;;0.50;;
52530;SDS011;38441;52.894;6.040;2022-09-13T10:44:01;4.55;;;0.32;;
52530;SDS011;38441;52.894;6.040;2022-09-13T10:46:31;5.63;;;0.43;;
52530;SDS011;38441;52.894;6.040;2022-09-13T10:49:00;7.57;;;0.82;;
52530;SDS011;38441;52.894;6.040;2022-09-13T10:56:42;3.13;;;0.47;;
52530;SDS011;38441;52.894;6.040;2022-09-13T11:04:49;4.68;;;0.43;;
52530;SDS011;38441;52.894;6.040;2022-09-13T11:10:20;4.13;;;0.40;;
52530;SDS011;38441;52.894;6.040;2022-09-13T11:12:56;6.00;;;0.63;;
52530;SDS011;38441;52.894;6.040;2022-09-13T11:20:58;2.25;;;0.40;;
52530;SDS011;38441;52.894;6.040;2022-09-13T11:23:40;4.85;;;0.60;;
52530;SDS011;38441;52.894;6.040;2022-09-13T11:26:23;3.47;;;0.30;;
52530;SDS011;38441;52.894;6.040;2022-09-13T11:32:00;5.85;;;0.90;;
52530;SDS011;38441;52.894;6.040;2022-09-13T11:40:27;4.53;;;0.50;;
52530;SDS011;38441;52.894;6.040;2022-09-13T11:46:31;2.35;;;0.30;;
52530;SDS011;38441;52.894;6.040;2022-09-13T11:55:21;3.00;;;0.40;;
